sensor_id;sensor_type;location;lat;lon;timestamp;pressure;altitude;pressure_sealevel;temperature;humidity
64158;BME280;50449;51.528;5.076;2023-01-04T00:00:20;101807.72;;;9.43;70.71
64158;BME280;50449;51.528;5.076;2023-01-04T00:02:45;101798.81;;;9.43;70.59
64158;BME280;50449;51.528;5.076;2023-01-04T00:05:11;101772.66;;;9.43;70.74
64158;BME280;50449;51.528;5.076;2023-01-04T00:07:36;101791.53;;;9.43;70.67
64158;BME280;50449;51.528;5.076;2023-01-04T00:10:01;101774.31;;;9.44;70.67
64158;BME280;50449;51.528;5.076;2023-01-04T00:12:26;101777.00;;;9.44;70.57
64158;BME280;50449;51.528;5.076;2023-01-04T00:14:52;101777.00;;;9.44;70.70
64158;BME280;50449;51.528;5.076;2023-01-04T00:17:17;101778.69;;;9.45;70.65
64158;BME280;50449;51.528;5.076;2023-01-04T00:19:42;101777.81;;;9.45;70.50
64158;BME280;50449;51.528;5.076;2023-01-04T00:22:07;101774.13;;;9.46;70.63
64158;BME280;50449;51.528;5.076;2023-01-04T00:24:33;101771.41;;;9.46;70.78
64158;BME280;50449;51.528;5.076;2023-01-04T00:26:58;101755.00;;;9.47;70.73
64158;BME280;50449;51.528;5.076;2023-01-04T00:29:23;101768.72;;;9.46;70.86
64158;BME280;50449;51.528;5.076;2023-01-04T00:31:48;101764.97;;;9.47;70.90
64158;BME280;50449;51.528;5.076;2023-01-04T00:34:14;101752.31;;;9.47;71.06
64158;BME280;50449;51.528;5.076;2023-01-04T00:36:40;101735.31;;;9.47;71.15
64158;BME280;50449;51.528;5.076;2023-01-04T00:39:06;101745.06;;;9.48;70.75
64158;BME280;50449;51.528;5.076;2023-01-04T00:41:35;101735.94;;;9.49;70.98
64158;BME280;50449;51.528;5.076;2023-01-04T00:44:01;101739.44;;;9.49;70.86
64158;BME280;50449;51.528;5.076;2023-01-04T00:46:28;101741.13;;;9.50;70.81
64158;BME280;50449;51.528;5.076;2023-01-04T00:48:53;101719.53;;;9.50;70.95
64158;BME280;50449;51.528;5.076;2023-01-04T00:51:19;101708.75;;;9.50;70.96
64158;BME280;50449;51.528;5.076;2023-01-04T00:53:44;101716.84;;;9.50;70.96
64158;BME280;50449;51.528;5.076;2023-01-04T00:56:09;101720.38;;;9.51;70.95
64158;BME280;50449;51.528;5.076;2023-01-04T00:58:34;101717.47;;;9.52;71.08
64158;BME280;50449;51.528;5.076;2023-01-04T01:01:03;101701.28;;;9.52;71.11
64158;BME280;50449;51.528;5.076;2023-01-04T01:03:28;101706.44;;;9.54;70.90
64158;BME280;50449;51.528;5.076;2023-01-04T01:05:54;101700.25;;;9.53;71.03
64158;BME280;50449;51.528;5.076;2023-01-04T01:08:19;101707.28;;;9.54;71.14
64158;BME280;50449;51.528;5.076;2023-01-04T01:10:51;101703.75;;;9.54;70.95
64158;BME280;50449;51.528;5.076;2023-01-04T01:13:16;101698.34;;;9.54;71.27
64158;BME280;50449;51.528;5.076;2023-01-04T01:15:42;101701.88;;;9.54;71.28
64158;BME280;50449;51.528;5.076;2023-01-04T01:18:10;101697.34;;;9.55;71.36
64158;BME280;50449;51.528;5.076;2023-01-04T01:20:44;101694.66;;;9.55;71.20
64158;BME280;50449;51.528;5.076;2023-01-04T01:23:13;101706.03;;;9.57;71.39
64158;BME280;50449;51.528;5.076;2023-01-04T01:25:39;101691.72;;;9.57;71.12
64158;BME280;50449;51.528;5.076;2023-01-04T01:28:05;101688.81;;;9.58;71.38
64158;BME280;50449;51.528;5.076;2023-01-04T01:30:30;101680.72;;;9.58;71.35
64158;BME280;50449;51.528;5.076;2023-01-04T01:32:55;101669.94;;;9.58;71.38
64158;BME280;50449;51.528;5.076;2023-01-04T01:35:21;101670.75;;;9.59;71.14
64158;BME280;50449;51.528;5.076;2023-01-04T01:37:46;101670.75;;;9.59;71.35
64158;BME280;50449;51.528;5.076;2023-01-04T01:40:11;101674.28;;;9.59;71.42
64158;BME280;50449;51.528;5.076;2023-01-04T01:42:37;101667.00;;;9.60;71.49
64158;BME280;50449;51.528;5.076;2023-01-04T01:45:05;101684.03;;;9.60;71.59
64158;BME280;50449;51.528;5.076;2023-01-04T01:47:39;101669.50;;;9.61;71.54
64158;BME280;50449;51.528;5.076;2023-01-04T01:50:08;101673.03;;;9.62;71.39
64158;BME280;50449;51.528;5.076;2023-01-04T01:52:40;101684.63;;;9.62;71.85
64158;BME280;50449;51.528;5.076;2023-01-04T01:55:06;101687.34;;;9.62;71.71
64158;BME280;50449;51.528;5.076;2023-01-04T01:57:33;101676.53;;;9.62;71.64
64158;BME280;50449;51.528;5.076;2023-01-04T02:00:03;101686.31;;;9.63;71.81
64158;BME280;50449;51.528;5.076;2023-01-04T02:02:29;101690.66;;;9.64;71.77
64158;BME280;50449;51.528;5.076;2023-01-04T02:04:54;101668.25;;;9.64;72.07
64158;BME280;50449;51.528;5.076;2023-01-04T02:07:23;101675.28;;;9.65;71.83
64158;BME280;50449;51.528;5.076;2023-01-04T02:09:49;101681.53;;;9.65;72.10
64158;BME280;50449;51.528;5.076;2023-01-04T02:12:15;101678.84;;;9.65;72.05
64158;BME280;50449;51.528;5.076;2023-01-04T02:14:41;101677.78;;;9.66;72.13
64158;BME280;50449;51.528;5.076;2023-01-04T02:28:07;101654.50;;;9.72;72.17
64158;BME280;50449;51.528;5.076;2023-01-04T02:33:10;101637.28;;;9.73;72.21
64158;BME280;50449;51.528;5.076;2023-01-04T02:35:42;101637.88;;;9.75;72.29
64158;BME280;50449;51.528;5.076;2023-01-04T02:38:18;101629.78;;;9.75;72.21
64158;BME280;50449;51.528;5.076;2023-01-04T02:40:48;101645.78;;;9.77;72.38
64158;BME280;50449;51.528;5.076;2023-01-04T02:43:19;101645.78;;;9.77;72.33
64158;BME280;50449;51.528;5.076;2023-01-04T02:46:24;101639.13;;;9.79;72.36
64158;BME280;50449;51.528;5.076;2023-01-04T02:48:51;101625.63;;;9.79;72.38
64158;BME280;50449;51.528;5.076;2023-01-04T02:51:36;101625.44;;;9.81;72.55
64158;BME280;50449;51.528;5.076;2023-01-04T02:54:08;101632.25;;;9.83;72.35
64158;BME280;50449;51.528;5.076;2023-01-04T03:07:47;101612.94;;;9.86;72.57
64158;BME280;50449;51.528;5.076;2023-01-04T03:10:19;101595.69;;;9.87;72.64
64158;BME280;50449;51.528;5.076;2023-01-04T03:12:48;101597.34;;;9.88;72.69
64158;BME280;50449;51.528;5.076;2023-01-04T03:15:22;101597.13;;;9.90;72.56
64158;BME280;50449;51.528;5.076;2023-01-04T03:17:54;101600.66;;;9.90;72.64
64158;BME280;50449;51.528;5.076;2023-01-04T03:20:22;101591.72;;;9.90;72.89
64158;BME280;50449;51.528;5.076;2023-01-04T03:22:58;101584.25;;;9.92;72.76
64158;BME280;50449;51.528;5.076;2023-01-04T03:25:48;101587.56;;;9.94;72.81
64158;BME280;50449;51.528;5.076;2023-01-04T03:28:36;101583.81;;;9.95;72.88
64158;BME280;50449;51.528;5.076;2023-01-04T03:31:23;101568.47;;;9.95;72.74
64158;BME280;50449;51.528;5.076;2023-01-04T03:34:08;101570.09;;;9.96;72.88
64158;BME280;50449;51.528;5.076;2023-01-04T03:39:56;101570.91;;;9.97;72.96
64158;BME280;50449;51.528;5.076;2023-01-04T03:42:52;101559.09;;;9.98;73.11
64158;BME280;50449;51.528;5.076;2023-01-04T03:45:39;101554.28;;;10.00;73.10
64158;BME280;50449;51.528;5.076;2023-01-04T03:51:05;101549.28;;;10.04;73.04
64158;BME280;50449;51.528;5.076;2023-01-04T03:53:34;101552.81;;;10.04;72.88
64158;BME280;50449;51.528;5.076;2023-01-04T03:56:01;101545.53;;;10.05;73.01
64158;BME280;50449;51.528;5.076;2023-01-04T03:58:27;101538.03;;;10.07;73.11
64158;BME280;50449;51.528;5.076;2023-01-04T04:00:52;101546.97;;;10.07;73.19
64158;BME280;50449;51.528;5.076;2023-01-04T04:03:18;101528.88;;;10.08;73.10
64158;BME280;50449;51.528;5.076;2023-01-04T04:05:43;101532.44;;;10.08;73.33
64158;BME280;50449;51.528;5.076;2023-01-04T04:08:28;101534.09;;;10.09;73.37
64158;BME280;50449;51.528;5.076;2023-01-04T04:10:54;101528.69;;;10.09;73.54
64158;BME280;50449;51.528;5.076;2023-01-04T04:13:20;101526.81;;;10.10;73.69
64158;BME280;50449;51.528;5.076;2023-01-04T04:15:45;101529.06;;;10.13;73.44
64158;BME280;50449;51.528;5.076;2023-01-04T04:18:11;101525.31;;;10.14;73.25
64158;BME280;50449;51.528;5.076;2023-01-04T04:20:36;101525.13;;;10.15;73.50
64158;BME280;50449;51.528;5.076;2023-01-04T04:23:01;101517.03;;;10.15;73.63
64158;BME280;50449;51.528;5.076;2023-01-04T04:25:26;101504.94;;;10.18;73.53
64158;BME280;50449;51.528;5.076;2023-01-04T04:27:52;101498.50;;;10.19;73.63
64158;BME280;50449;51.528;5.076;2023-01-04T04:30:17;101483.94;;;10.20;73.60
64158;BME280;50449;51.528;5.076;2023-01-04T04:32:42;101491.81;;;10.22;73.71
64158;BME280;50449;51.528;5.076;2023-01-04T04:35:08;101499.94;;;10.22;73.66
64158;BME280;50449;51.528;5.076;2023-01-04T04:37:33;101503.22;;;10.24;73.80
64158;BME280;50449;51.528;5.076;2023-01-04T04:39:59;101494.06;;;10.25;73.71
64158;BME280;50449;51.528;5.076;2023-01-04T04:42:24;101493.03;;;10.26;73.71
64158;BME280;50449;51.528;5.076;2023-01-04T04:44:49;101489.28;;;10.27;73.73
64158;BME280;50449;51.528;5.076;2023-01-04T04:47:15;101484.69;;;10.27;73.53
64158;BME280;50449;51.528;5.076;2023-01-04T04:49:40;101488.03;;;10.29;73.39
64158;BME280;50449;51.528;5.076;2023-01-04T04:52:06;101488.03;;;10.29;73.59
64158;BME280;50449;51.528;5.076;2023-01-04T04:54:31;101466.22;;;10.31;73.79
64158;BME280;50449;51.528;5.076;2023-01-04T04:56:56;101477.03;;;10.31;73.86
64158;BME280;50449;51.528;5.076;2023-01-04T04:59:21;101472.44;;;10.31;73.57
64158;BME280;50449;51.528;5.076;2023-01-04T05:01:47;101469.28;;;10.34;73.77
64158;BME280;50449;51.528;5.076;2023-01-04T05:04:12;101476.34;;;10.35;73.64
64158;BME280;50449;51.528;5.076;2023-01-04T05:06:43;101457.22;;;10.37;73.81
64158;BME280;50449;51.528;5.076;2023-01-04T05:09:09;101470.50;;;10.38;73.63
64158;BME280;50449;51.528;5.076;2023-01-04T05:11:34;101472.16;;;10.39;73.70
64158;BME280;50449;51.528;5.076;2023-01-04T05:14:18;101463.00;;;10.40;73.61
64158;BME280;50449;51.528;5.076;2023-01-04T05:16:43;101463.00;;;10.40;73.47
64158;BME280;50449;51.528;5.076;2023-01-04T05:19:09;101453.84;;;10.42;73.59
64158;BME280;50449;51.528;5.076;2023-01-04T05:21:34;101463.38;;;10.44;73.65
64158;BME280;50449;51.528;5.076;2023-01-04T05:23:59;101459.88;;;10.44;73.89
64158;BME280;50449;51.528;5.076;2023-01-04T05:26:25;101461.50;;;10.45;73.95
64158;BME280;50449;51.528;5.076;2023-01-04T05:28:50;101459.63;;;10.45;73.93
64158;BME280;50449;51.528;5.076;2023-01-04T05:31:15;101459.19;;;10.48;73.89
64158;BME280;50449;51.528;5.076;2023-01-04T05:33:40;101463.31;;;10.51;73.92
64158;BME280;50449;51.528;5.076;2023-01-04T05:36:06;101463.31;;;10.51;73.49
64158;BME280;50449;51.528;5.076;2023-01-04T05:38:31;101449.81;;;10.51;73.78
64158;BME280;50449;51.528;5.076;2023-01-04T05:40:57;101453.94;;;10.53;73.74
64158;BME280;50449;51.528;5.076;2023-01-04T05:43:22;101440.44;;;10.53;73.95
64158;BME280;50449;51.528;5.076;2023-01-04T05:45:49;101429.38;;;10.55;73.81
64158;BME280;50449;51.528;5.076;2023-01-04T05:48:15;101434.56;;;10.56;73.90
64158;BME280;50449;51.528;5.076;2023-01-04T05:50:40;101426.47;;;10.56;73.87
64158;BME280;50449;51.528;5.076;2023-01-04T05:53:05;101428.94;;;10.58;74.08
64158;BME280;50449;51.528;5.076;2023-01-04T05:55:31;101426.00;;;10.59;73.72
64158;BME280;50449;51.528;5.076;2023-01-04T05:57:56;101437.66;;;10.60;73.83
64158;BME280;50449;51.528;5.076;2023-01-04T06:00:22;101424.94;;;10.60;73.89
64158;BME280;50449;51.528;5.076;2023-01-04T06:02:47;101430.97;;;10.63;73.83
64158;BME280;50449;51.528;5.076;2023-01-04T06:05:12;101422.63;;;10.64;73.97
64158;BME280;50449;51.528;5.076;2023-01-04T06:07:38;101420.75;;;10.65;73.88
64158;BME280;50449;51.528;5.076;2023-01-04T06:10:05;101425.94;;;10.66;74.08
64158;BME280;50449;51.528;5.076;2023-01-04T06:12:30;101418.88;;;10.65;73.93
64158;BME280;50449;51.528;5.076;2023-01-04T06:14:56;101422.19;;;10.67;73.99
64158;BME280;50449;51.528;5.076;2023-01-04T06:17:21;101421.97;;;10.69;74.09
64158;BME280;50449;51.528;5.076;2023-01-04T06:19:46;101421.97;;;10.69;74.14
64158;BME280;50449;51.528;5.076;2023-01-04T06:22:11;101416.31;;;10.70;74.12
64158;BME280;50449;51.528;5.076;2023-01-04T06:24:37;101405.28;;;10.72;74.07
64158;BME280;50449;51.528;5.076;2023-01-04T06:27:02;101415.03;;;10.73;74.22
64158;BME280;50449;51.528;5.076;2023-01-04T06:29:27;101414.00;;;10.74;74.14
64158;BME280;50449;51.528;5.076;2023-01-04T06:31:53;101419.16;;;10.75;73.97
64158;BME280;50449;51.528;5.076;2023-01-04T06:34:18;101423.53;;;10.76;74.04
64158;BME280;50449;51.528;5.076;2023-01-04T06:36:44;101411.66;;;10.77;74.24
64158;BME280;50449;51.528;5.076;2023-01-04T06:39:09;101423.28;;;10.78;74.00
64158;BME280;50449;51.528;5.076;2023-01-04T06:41:34;101412.25;;;10.79;74.02
64158;BME280;50449;51.528;5.076;2023-01-04T06:43:59;101420.16;;;10.81;74.16
64158;BME280;50449;51.528;5.076;2023-01-04T06:46:25;101420.97;;;10.81;74.07
64158;BME280;50449;51.528;5.076;2023-01-04T06:48:50;101410.97;;;10.82;74.29
64158;BME280;50449;51.528;5.076;2023-01-04T06:51:17;101404.50;;;10.83;74.21
64158;BME280;50449;51.528;5.076;2023-01-04T06:53:43;101418.88;;;10.83;74.18
64158;BME280;50449;51.528;5.076;2023-01-04T06:56:08;101420.50;;;10.85;74.03
64158;BME280;50449;51.528;5.076;2023-01-04T06:58:34;101401.38;;;10.86;74.09
64158;BME280;50449;51.528;5.076;2023-01-04T07:00:59;101409.25;;;10.88;74.25
64158;BME280;50449;51.528;5.076;2023-01-04T07:03:24;101388.44;;;10.88;74.20
64158;BME280;50449;51.528;5.076;2023-01-04T07:05:49;101399.03;;;10.90;73.93
64158;BME280;50449;51.528;5.076;2023-01-04T07:08:16;101378.22;;;10.90;74.15
64158;BME280;50449;51.528;5.076;2023-01-04T07:10:41;101379.03;;;10.91;74.18
64158;BME280;50449;51.528;5.076;2023-01-04T07:13:07;101382.59;;;10.91;74.06
64158;BME280;50449;51.528;5.076;2023-01-04T07:15:32;101371.53;;;10.93;74.38
64158;BME280;50449;51.528;5.076;2023-01-04T07:17:57;101379.66;;;10.93;74.14
64158;BME280;50449;51.528;5.076;2023-01-04T07:20:22;101366.94;;;10.93;74.14
64158;BME280;50449;51.528;5.076;2023-01-04T07:22:48;101381.06;;;10.95;74.14
64158;BME280;50449;51.528;5.076;2023-01-04T07:25:13;101366.50;;;10.96;74.08
64158;BME280;50449;51.528;5.076;2023-01-04T07:27:38;101370.84;;;10.97;74.10
64158;BME280;50449;51.528;5.076;2023-01-04T07:30:04;101374.97;;;11.00;73.95
64158;BME280;50449;51.528;5.076;2023-01-04T07:32:29;101370.38;;;11.00;74.08
64158;BME280;50449;51.528;5.076;2023-01-04T07:34:54;101357.69;;;11.01;74.37
64158;BME280;50449;51.528;5.076;2023-01-04T07:37:20;101353.94;;;11.02;74.32
64158;BME280;50449;51.528;5.076;2023-01-04T07:39:45;101363.69;;;11.03;74.29
64158;BME280;50449;51.528;5.076;2023-01-04T07:42:12;101353.47;;;11.05;74.25
64158;BME280;50449;51.528;5.076;2023-01-04T07:44:37;101339.97;;;11.05;74.37
64158;BME280;50449;51.528;5.076;2023-01-04T07:47:03;101345.38;;;11.05;74.23
64158;BME280;50449;51.528;5.076;2023-01-04T07:49:28;101339.75;;;11.07;74.59
64158;BME280;50449;51.528;5.076;2023-01-04T07:51:54;101346.56;;;11.09;74.50
64158;BME280;50449;51.528;5.076;2023-01-04T07:54:19;101366.31;;;11.10;74.44
64158;BME280;50449;51.528;5.076;2023-01-04T07:56:45;101357.94;;;11.11;74.52
64158;BME280;50449;51.528;5.076;2023-01-04T07:59:11;101356.09;;;11.12;74.30
64158;BME280;50449;51.528;5.076;2023-01-04T08:01:36;101345.28;;;11.12;74.40
64158;BME280;50449;51.528;5.076;2023-01-04T08:04:05;101347.72;;;11.13;74.62
64158;BME280;50449;51.528;5.076;2023-01-04T08:06:30;101353.41;;;11.12;74.46
64158;BME280;50449;51.528;5.076;2023-01-04T08:08:59;101360.22;;;11.14;74.77
64158;BME280;50449;51.528;5.076;2023-01-04T08:11:25;101371.25;;;11.13;74.65
64158;BME280;50449;51.528;5.076;2023-01-04T08:13:50;101369.97;;;11.15;74.61
64158;BME280;50449;51.528;5.076;2023-01-04T08:16:20;101358.09;;;11.16;74.57
64158;BME280;50449;51.528;5.076;2023-01-04T08:18:47;101367.84;;;11.17;74.53
64158;BME280;50449;51.528;5.076;2023-01-04T08:21:12;101373.28;;;11.17;74.67
64158;BME280;50449;51.528;5.076;2023-01-04T08:23:37;101378.69;;;11.17;74.49
64158;BME280;50449;51.528;5.076;2023-01-04T08:28:28;101389.84;;;11.21;74.64
64158;BME280;50449;51.528;5.076;2023-01-04T08:30:53;101382.56;;;11.21;74.74
64158;BME280;50449;51.528;5.076;2023-01-04T08:33:18;101385.28;;;11.21;74.71
64158;BME280;50449;51.528;5.076;2023-01-04T08:35:43;101386.69;;;11.24;74.71
64158;BME280;50449;51.528;5.076;2023-01-04T08:38:09;101374.00;;;11.24;74.69
64158;BME280;50449;51.528;5.076;2023-01-04T08:40:34;101383.75;;;11.25;74.62
64158;BME280;50449;51.528;5.076;2023-01-04T08:42:59;101381.84;;;11.26;74.75
64158;BME280;50449;51.528;5.076;2023-01-04T08:45:25;101382.47;;;11.28;74.68
64158;BME280;50449;51.528;5.076;2023-01-04T08:47:50;101381.41;;;11.29;74.55
64158;BME280;50449;51.528;5.076;2023-01-04T08:50:15;101376.56;;;11.31;74.85
64158;BME280;50449;51.528;5.076;2023-01-04T08:52:43;101387.19;;;11.33;74.79
64158;BME280;50449;51.528;5.076;2023-01-04T08:55:08;101380.69;;;11.34;74.73
64158;BME280;50449;51.528;5.076;2023-01-04T08:57:33;101390.47;;;11.35;74.55
64158;BME280;50449;51.528;5.076;2023-01-04T08:59:59;101388.59;;;11.35;74.80
64158;BME280;50449;51.528;5.076;2023-01-04T09:02:26;101378.59;;;11.36;74.66
64158;BME280;50449;51.528;5.076;2023-01-04T09:04:54;101375.66;;;11.37;74.83
64158;BME280;50449;51.528;5.076;2023-01-04T09:07:27;101378.13;;;11.39;74.56
64158;BME280;50449;51.528;5.076;2023-01-04T09:09:52;101377.91;;;11.40;74.66
64158;BME280;50449;51.528;5.076;2023-01-04T09:12:17;101381.41;;;11.41;74.67
64158;BME280;50449;51.528;5.076;2023-01-04T09:14:43;101383.09;;;11.42;74.64
64158;BME280;50449;51.528;5.076;2023-01-04T09:17:08;101380.94;;;11.44;74.71
64158;BME280;50449;51.528;5.076;2023-01-04T09:19:33;101380.72;;;11.45;74.60
64158;BME280;50449;51.528;5.076;2023-01-04T09:21:59;101389.66;;;11.46;74.63
64158;BME280;50449;51.528;5.076;2023-01-04T09:24:24;101384.25;;;11.46;74.66
64158;BME280;50449;51.528;5.076;2023-01-04T09:26:50;101388.38;;;11.48;74.44
64158;BME280;50449;51.528;5.076;2023-01-04T09:29:15;101394.38;;;11.51;74.43
64158;BME280;50449;51.528;5.076;2023-01-04T09:31:40;101387.34;;;11.50;74.64
64158;BME280;50449;51.528;5.076;2023-01-04T09:34:06;101387.94;;;11.52;74.57
64158;BME280;50449;51.528;5.076;2023-01-04T09:36:31;101395.19;;;11.51;74.92
64158;BME280;50449;51.528;5.076;2023-01-04T09:38:56;101386.88;;;11.53;74.64
64158;BME280;50449;51.528;5.076;2023-01-04T09:43:51;101387.22;;;11.56;74.75
64158;BME280;50449;51.528;5.076;2023-01-04T09:46:22;101375.56;;;11.56;74.84
64158;BME280;50449;51.528;5.076;2023-01-04T09:48:50;101386.16;;;11.57;74.79
64158;BME280;50449;51.528;5.076;2023-01-04T09:51:17;101384.28;;;11.58;74.88
64158;BME280;50449;51.528;5.076;2023-01-04T09:53:53;101387.59;;;11.60;74.91
64158;BME280;50449;51.528;5.076;2023-01-04T09:56:28;101370.28;;;11.61;74.65
64158;BME280;50449;51.528;5.076;2023-01-04T09:58:55;101383.81;;;11.61;74.71
64158;BME280;50449;51.528;5.076;2023-01-04T10:01:23;101373.81;;;11.61;74.70
64158;BME280;50449;51.528;5.076;2023-01-04T10:03:53;101371.09;;;11.61;74.73
64158;BME280;50449;51.528;5.076;2023-01-04T10:06:22;101365.47;;;11.63;74.83
64158;BME280;50449;51.528;5.076;2023-01-04T10:08:48;101379.81;;;11.63;75.05
64158;BME280;50449;51.528;5.076;2023-01-04T10:16:18;101383.72;;;11.67;74.92
64158;BME280;50449;51.528;5.076;2023-01-04T10:19:00;101387.81;;;11.70;74.66
64158;BME280;50449;51.528;5.076;2023-01-04T10:21:32;101388.66;;;11.70;74.69
64158;BME280;50449;51.528;5.076;2023-01-04T10:26:38;101378.41;;;11.73;75.07
64158;BME280;50449;51.528;5.076;2023-01-04T10:31:55;101382.53;;;11.75;75.02
64158;BME280;50449;51.528;5.076;2023-01-04T10:34:25;101377.94;;;11.76;74.94
64158;BME280;50449;51.528;5.076;2023-01-04T10:36:53;101388.75;;;11.76;75.02
64158;BME280;50449;51.528;5.076;2023-01-04T10:39:21;101382.28;;;11.77;74.94
64158;BME280;50449;51.528;5.076;2023-01-04T10:41:49;101372.91;;;11.79;74.84
64158;BME280;50449;51.528;5.076;2023-01-04T10:46:55;101362.63;;;11.81;75.17
64158;BME280;50449;51.528;5.076;2023-01-04T10:52:21;101372.16;;;11.84;74.93
64158;BME280;50449;51.528;5.076;2023-01-04T10:54:40;101371.13;;;11.85;74.83
64158;BME280;50449;51.528;5.076;2023-01-04T10:57:11;101378.81;;;11.88;75.35
64158;BME280;50449;51.528;5.076;2023-01-04T11:08:01;101382.81;;;11.97;75.08
64158;BME280;50449;51.528;5.076;2023-01-04T11:10:43;101385.50;;;11.97;75.06
64158;BME280;50449;51.528;5.076;2023-01-04T11:13:10;101387.97;;;11.99;75.06
64158;BME280;50449;51.528;5.076;2023-01-04T11:15:36;101371.72;;;11.99;75.06
64158;BME280;50449;51.528;5.076;2023-01-04T11:18:02;101360.66;;;12.00;75.01
64158;BME280;50449;51.528;5.076;2023-01-04T11:20:31;101370.44;;;12.01;74.92
64158;BME280;50449;51.528;5.076;2023-01-04T11:25:22;101378.31;;;12.03;75.11
64158;BME280;50449;51.528;5.076;2023-01-04T11:27:58;101382.66;;;12.04;74.91
64158;BME280;50449;51.528;5.076;2023-01-04T11:30:30;101378.06;;;12.04;74.97
64158;BME280;50449;51.528;5.076;2023-01-04T11:33:07;101368.91;;;12.05;74.91
64158;BME280;50449;51.528;5.076;2023-01-04T11:35:36;101367.81;;;12.06;74.72
64158;BME280;50449;51.528;5.076;2023-01-04T11:40:39;101365.94;;;12.07;74.80
64158;BME280;50449;51.528;5.076;2023-01-04T11:43:15;101371.13;;;12.08;74.80
64158;BME280;50449;51.528;5.076;2023-01-04T11:45:51;101367.34;;;12.09;74.98
64158;BME280;50449;51.528;5.076;2023-01-04T11:48:17;101370.06;;;12.09;74.75
64158;BME280;50449;51.528;5.076;2023-01-04T11:50:45;101371.94;;;12.09;74.80
64158;BME280;50449;51.528;5.076;2023-01-04T11:55:48;101377.38;;;12.09;74.98
64158;BME280;50449;51.528;5.076;2023-01-04T11:58:15;101377.97;;;12.11;74.92
64158;BME280;50449;51.528;5.076;2023-01-04T12:00:48;101376.91;;;12.12;75.01
64158;BME280;50449;51.528;5.076;2023-01-04T12:03:15;101380.44;;;12.12;74.87
64158;BME280;50449;51.528;5.076;2023-01-04T12:05:41;101375.03;;;12.12;74.97
64158;BME280;50449;51.528;5.076;2023-01-04T12:08:08;101381.03;;;12.15;74.74
64158;BME280;50449;51.528;5.076;2023-01-04T12:10:41;101378.88;;;12.17;74.79
64158;BME280;50449;51.528;5.076;2023-01-04T12:13:07;101375.13;;;12.18;74.80
64158;BME280;50449;51.528;5.076;2023-01-04T12:18:15;101378.44;;;12.20;74.60
64158;BME280;50449;51.528;5.076;2023-01-04T12:20:43;101376.53;;;12.20;74.79
64158;BME280;50449;51.528;5.076;2023-01-04T12:23:10;101374.44;;;12.22;74.67
64158;BME280;50449;51.528;5.076;2023-01-04T12:25:45;101367.13;;;12.23;74.66
64158;BME280;50449;51.528;5.076;2023-01-04T12:33:42;101358.72;;;12.24;74.54
64158;BME280;50449;51.528;5.076;2023-01-04T12:36:14;101370.41;;;12.25;74.60
64158;BME280;50449;51.528;5.076;2023-01-04T12:42:10;101367.22;;;12.28;74.57
64158;BME280;50449;51.528;5.076;2023-01-04T12:52:44;101354.81;;;12.32;74.60
64158;BME280;50449;51.528;5.076;2023-01-04T12:55:55;101358.38;;;12.32;74.45
64158;BME280;50449;51.528;5.076;2023-01-04T12:57:55;101358.13;;;12.34;74.62
64158;BME280;50449;51.528;5.076;2023-01-04T13:00:22;101356.22;;;12.34;74.58
64158;BME280;50449;51.528;5.076;2023-01-04T13:05:34;101341.66;;;12.36;74.55
64158;BME280;50449;51.528;5.076;2023-01-04T13:08:01;101349.50;;;12.37;74.67
64158;BME280;50449;51.528;5.076;2023-01-04T13:10:40;101353.88;;;12.38;74.43
64158;BME280;50449;51.528;5.076;2023-01-04T13:18:47;101352.59;;;12.41;74.41
64158;BME280;50449;51.528;5.076;2023-01-04T13:21:15;101346.09;;;12.42;74.47
64158;BME280;50449;51.528;5.076;2023-01-04T13:23:45;101343.16;;;12.43;74.52
64158;BME280;50449;51.528;5.076;2023-01-04T13:31:39;101355.41;;;12.46;74.27
64158;BME280;50449;51.528;5.076;2023-01-04T13:34:11;101351.59;;;12.47;74.31
64158;BME280;50449;51.528;5.076;2023-01-04T13:36:39;101348.66;;;12.48;74.41
64158;BME280;50449;51.528;5.076;2023-01-04T13:39:05;101349.50;;;12.49;74.26
64158;BME280;50449;51.528;5.076;2023-01-04T13:41:31;101348.66;;;12.48;74.20
64158;BME280;50449;51.528;5.076;2023-01-04T13:44:08;101350.31;;;12.49;74.35
64158;BME280;50449;51.528;5.076;2023-01-04T13:46:35;101359.03;;;12.51;74.34
64158;BME280;50449;51.528;5.076;2023-01-04T13:49:00;101353.59;;;12.51;74.44
64158;BME280;50449;51.528;5.076;2023-01-04T13:51:30;101354.19;;;12.53;74.34
64158;BME280;50449;51.528;5.076;2023-01-04T13:53:59;101351.47;;;12.53;74.20
64158;BME280;50449;51.528;5.076;2023-01-04T13:56:26;101345.00;;;12.54;74.27
64158;BME280;50449;51.528;5.076;2023-01-04T13:58:52;101343.94;;;12.55;74.30
64158;BME280;50449;51.528;5.076;2023-01-04T14:07:04;101333.69;;;12.58;74.00
64158;BME280;50449;51.528;5.076;2023-01-04T14:09:30;101332.59;;;12.59;74.33
64158;BME280;50449;51.528;5.076;2023-01-04T14:12:00;101338.84;;;12.59;74.06
64158;BME280;50449;51.528;5.076;2023-01-04T14:14:49;101337.81;;;12.60;74.43
64158;BME280;50449;51.528;5.076;2023-01-04T14:17:16;101334.84;;;12.62;74.29
64158;BME280;50449;51.528;5.076;2023-01-04T14:24:45;101318.34;;;12.63;74.32
64158;BME280;50449;51.528;5.076;2023-01-04T14:27:44;101315.13;;;12.66;74.11
64158;BME280;50449;51.528;5.076;2023-01-04T14:32:59;101309.13;;;12.64;74.15
64158;BME280;50449;51.528;5.076;2023-01-04T14:35:26;101312.44;;;12.66;74.08
64158;BME280;50449;51.528;5.076;2023-01-04T14:37:52;101304.28;;;12.66;74.04
64158;BME280;50449;51.528;5.076;2023-01-04T14:40:28;101325.75;;;12.68;74.34
64158;BME280;50449;51.528;5.076;2023-01-04T14:42:55;101333.03;;;12.67;74.07
64158;BME280;50449;51.528;5.076;2023-01-04T14:45:20;101330.31;;;12.67;74.17
64158;BME280;50449;51.528;5.076;2023-01-04T14:47:45;101333.88;;;12.68;74.12
64158;BME280;50449;51.528;5.076;2023-01-04T14:50:13;101330.69;;;12.71;74.21